Share

Krabi, Thailand

11:15 PM ICT on April 23, 2014 (GMT +0700)
Ao Nang, Krabi (IKRABIAO1) Elev 177 ft | 8.05 °N, 98.84 °E | Change Station

Current weather conditions updated 20 seconds ago

Thunderstorm
Thunderstorm
79.5 °F
Feels Like 85 °F
N
0.0
Wind Variable Wind from NNW
Gusts 0.0 mph
Sunrise 6:11 AM
Sunset 6:33 PM
Moon Waning Crescent

Tomorrow is forecast to be nearly the same temperature as today. Showers and thunderstorms late.

Pressure 29.83 in
Visibility 4.3 miles
Clouds Few 1800 ft
Scattered Clouds 2000 ft
Mostly Cloudy 30000 ft
Heat Index 85 °F
Dew Point 78 °F
Humidity 95%
Rainfall 0.62 in
Snow Depth Not available.
UV 0.0 out of 16
Pollen Not available.
Air Quality Not available.
Flu Activity Not available.
METAR VTSP 231600Z 12006KT 7000 TS FEW018 SCT020 BKN300 27/24 Q1010 A2982

More Conditions Fewer Conditions

Pressure 29.83 in
Visibility 4.3 miles
Clouds Few 1800 ft
Scattered Clouds 2000 ft
Mostly Cloudy 30000 ft
Heat Index 85 °F
Dew Point 78 °F
Humidity 95%
Rainfall 0.62 in
Snow Depth Not available.
UV 0.0 out of 16
Pollen Not available.
Air Quality Not available.
Flu Activity Not available.
METAR VTSP 231600Z 12006KT 7000 TS FEW018 SCT020 BKN300 27/24 Q1010 A2982

More Conditions Fewer Conditions

10-Day Weather Forecast

Almanac

Astronomy

Apr. 23, 2014 Rise Set
Actual Time 6:11 AM ICT 6:33 PM ICT
Civil Twilight 5:50 AM ICT 6:54 PM ICT
Nautical Twilight 5:25 AM ICT 7:19 PM ICT
Astronomical Twilight 5:00 AM ICT 7:44 PM ICT
Moon 1:06 AM ICT 1:17 PM ICT
Length of Visible Light 13h 04m
Length of Day
12h 21m
Tomorrow will be 0m 24s longer.
Waning Crescent, 35% of the Moon is Illuminated
Today
Waning Crescent
Apr 29
New
May 6
First Quarter
May 14
Full
May 21
Last Quarter

Today's Extremes

Country Highs Country Lows

Community

  • spring flowers
    spring flowers
  • Earth Day Spectrum Ove' Blue
    Earth Day Spectrum Ove' Blue
  • BARN B&W
    BARN B&W
  • April Sunset
    April Sunset
  • Waiting..
    Waiting..

WunderPhotos

Upload Photos

1,704,322 photos uploaded!

Nearby

Snow Depth

Not available.

Coastal Water Temperatures

Place Temperature
No Stations Reporting

Earthquake Activity

City Distance Mag. Time & Date
No recent earthquake activity has been reported nearby.
Minimum magnitude displayed is 2.5.

Nearby Weather Stations

Station Location Temp. Heat Index Dew Point Humidity Wind Precip. Elev Updated Type
Ao Nang, Krabi, Ao Nang 79.5 °F 85 °F 78 °F 95% NNW  at  0.0 mph 0.00 in / hr 177 ft 11:15 PM ICT Normal

Show More Stations Show Fewer Stations

What do you think?

We're not finished. Please let us know what you like, what you don't like, and what you are still missing.